createdAt,value
2023-04-19T00:02:13.304Z,3.28
2023-04-19T00:06:15.108Z,3.78
2023-04-19T00:10:16.799Z,3.05
2023-04-19T00:14:18.397Z,3.53
2023-04-19T00:18:20.090Z,3.00
2023-04-19T00:22:21.865Z,3.13
2023-04-19T00:26:23.331Z,2.28
2023-04-19T00:30:24.763Z,2.72
2023-04-19T00:34:26.223Z,2.83
2023-04-19T00:38:27.643Z,2.90
2023-04-19T00:42:29.099Z,3.08
2023-04-19T00:46:30.865Z,2.55
2023-04-19T00:50:32.349Z,2.88
2023-04-19T00:54:34.135Z,2.65
2023-04-19T00:58:37.691Z,2.95
2023-04-19T01:02:39.225Z,2.33
2023-04-19T01:06:41.908Z,2.42
2023-04-19T01:10:43.319Z,2.45
2023-04-19T01:14:44.725Z,2.38
2023-04-19T01:18:46.172Z,2.50
2023-04-19T01:22:47.614Z,2.35
2023-04-19T01:26:49.026Z,2.83
2023-04-19T01:30:54.542Z,2.60
2023-04-19T01:34:56.043Z,2.33
2023-04-19T01:38:57.505Z,2.50
2023-04-19T01:42:58.976Z,2.13
2023-04-19T01:47:00.581Z,2.72
2023-04-19T01:51:02.122Z,2.50
2023-04-19T01:55:05.315Z,2.35
2023-04-19T01:59:06.725Z,2.85
2023-04-19T02:03:08.294Z,2.97
2023-04-19T02:07:09.846Z,2.83
2023-04-19T02:11:14.479Z,2.90
2023-04-19T02:15:15.902Z,2.38
2023-04-19T02:19:17.970Z,2.55
2023-04-19T02:23:19.380Z,2.50
2023-04-19T02:27:20.839Z,2.58
2023-04-19T02:31:22.681Z,2.58
2023-04-19T02:35:24.152Z,2.78
2023-04-19T02:39:25.667Z,2.80
2023-04-19T02:43:27.216Z,2.70
2023-04-19T02:47:28.723Z,2.50
2023-04-19T02:51:30.698Z,3.67
2023-04-19T02:55:32.361Z,2.50
2023-04-19T02:59:33.825Z,2.38
2023-04-19T03:03:35.459Z,2.70
2023-04-19T03:07:37.116Z,2.00
2023-04-19T03:11:38.670Z,2.25
2023-04-19T03:15:40.237Z,2.75
2023-04-19T03:19:41.730Z,2.55
2023-04-19T03:23:43.156Z,2.05
2023-04-19T03:27:45.541Z,2.42
2023-04-19T03:31:47.818Z,2.35
2023-04-19T03:35:49.237Z,2.55
2023-04-19T03:39:50.643Z,2.17
2023-04-19T03:43:52.447Z,2.25
2023-04-19T03:47:53.872Z,1.73
2023-04-19T03:51:55.367Z,2.58
2023-04-19T03:55:56.799Z,1.98
2023-04-19T03:59:58.398Z,2.20
2023-04-19T04:04:02.310Z,2.00
2023-04-19T04:08:05.611Z,2.08
2023-04-19T04:12:07.162Z,2.28
2023-04-19T04:16:08.789Z,1.85
2023-04-19T04:20:11.835Z,2.25
2023-04-19T04:24:13.853Z,2.08
2023-04-19T04:28:15.825Z,2.65
2023-04-19T04:32:18.078Z,2.65
2023-04-19T04:36:20.491Z,2.40
2023-04-19T04:40:22.108Z,2.47
2023-04-19T04:44:24.742Z,2.20
2023-04-19T04:48:26.487Z,2.47
2023-04-19T04:52:28.378Z,2.40
2023-04-19T04:56:30.896Z,2.13
2023-04-19T05:00:32.753Z,2.03
2023-04-19T05:04:34.260Z,2.85
2023-04-19T05:08:35.729Z,1.98
2023-04-19T05:12:38.030Z,3.17
2023-04-19T05:16:39.917Z,2.70
2023-04-19T05:20:41.560Z,2.70
2023-04-19T05:24:43.093Z,3.05
2023-04-19T05:28:44.962Z,2.20
2023-04-19T05:32:46.906Z,2.30
2023-04-19T05:36:48.364Z,2.33
2023-04-19T05:40:49.768Z,2.50
2023-04-19T05:44:51.253Z,2.33
2023-04-19T05:48:53.016Z,2.58
2023-04-19T05:52:54.488Z,2.60
2023-04-19T05:56:56.179Z,2.13
2023-04-19T06:00:57.601Z,2.33
2023-04-19T06:05:02.423Z,2.55
2023-04-19T06:09:07.237Z,1.83
2023-04-19T06:13:08.710Z,1.50
2023-04-19T06:17:10.192Z,2.25
2023-04-19T06:21:11.688Z,2.75
2023-04-19T06:25:13.347Z,2.50
2023-04-19T06:29:14.777Z,2.45
2023-04-19T06:33:16.441Z,1.83
2023-04-19T06:37:17.911Z,2.17
2023-04-19T06:41:19.406Z,2.05
2023-04-19T06:45:21.079Z,2.38
2023-04-19T06:49:22.709Z,1.90
2023-04-19T06:53:24.453Z,2.10
2023-04-19T06:57:26.049Z,2.40
2023-04-19T07:01:27.527Z,2.22
2023-04-19T07:05:30.639Z,1.65
2023-04-19T07:09:32.209Z,1.92
2023-04-19T07:13:33.626Z,1.70
2023-04-19T07:17:36.631Z,2.35
2023-04-19T07:21:39.456Z,2.35
2023-04-19T07:25:40.930Z,1.98
2023-04-19T07:29:42.340Z,2.10
2023-04-19T07:33:44.424Z,2.30
2023-04-19T07:37:45.910Z,2.03
2023-04-19T07:41:47.447Z,2.40
2023-04-19T07:45:48.942Z,1.52
2023-04-19T07:49:53.624Z,2.67
2023-04-19T07:53:55.134Z,3.40
2023-04-19T07:57:56.594Z,2.00
2023-04-19T08:01:58.137Z,3.33
2023-04-19T08:06:07.134Z,4.30
2023-04-19T08:10:09.615Z,2.20
2023-04-19T08:14:27.110Z,1.73
2023-04-19T08:18:36.155Z,1.88
2023-04-19T08:22:39.081Z,1.70
2023-04-19T08:26:40.810Z,1.85
2023-04-19T08:30:42.332Z,1.90
2023-04-19T08:34:43.832Z,2.10
2023-04-19T08:38:49.171Z,1.85
2023-04-19T08:42:57.065Z,2.53
2023-04-19T08:47:01.452Z,1.92
2023-04-19T08:51:05.765Z,1.92
2023-04-19T08:55:08.748Z,2.05
2023-04-19T08:59:18.014Z,2.20
2023-04-19T09:07:26.499Z,2.40
2023-04-19T09:11:40.902Z,2.25
2023-04-19T09:15:44.568Z,2.53
2023-04-19T09:19:50.315Z,2.40
2023-04-19T09:23:51.926Z,2.13
2023-04-19T09:27:54.863Z,2.35
2023-04-19T09:31:58.812Z,2.20
2023-04-19T09:36:03.237Z,2.28
2023-04-19T09:40:25.034Z,2.40
2023-04-19T09:48:31.086Z,2.17
2023-04-19T09:52:34.800Z,2.13
2023-04-19T09:56:37.077Z,2.30
2023-04-19T10:00:47.783Z,2.30
2023-04-19T10:09:02.515Z,2.60
2023-04-19T10:13:19.317Z,2.53
2023-04-19T10:17:23.094Z,2.38
2023-04-19T10:21:27.353Z,2.75
2023-04-19T10:25:30.694Z,2.40
2023-04-19T10:29:57.762Z,2.30
2023-04-19T10:33:59.322Z,2.70
2023-04-19T10:38:12.844Z,2.55
2023-04-19T10:42:14.313Z,2.28
2023-04-19T10:46:16.798Z,2.85
2023-04-19T10:50:18.602Z,2.45
2023-04-19T10:54:31.192Z,2.30
2023-04-19T10:59:01.882Z,2.15
2023-04-19T11:03:44.812Z,2.35
2023-04-19T11:07:46.352Z,2.92
2023-04-19T11:11:47.821Z,2.58
2023-04-19T11:15:49.325Z,2.95
2023-04-19T11:20:07.148Z,2.78
2023-04-19T11:24:14.549Z,2.70
2023-04-19T11:28:17.512Z,2.95
2023-04-19T11:32:21.475Z,2.90
2023-04-19T11:36:22.960Z,2.58
2023-04-19T11:40:28.300Z,2.97
2023-04-19T11:44:30.775Z,2.88
2023-04-19T11:48:32.745Z,2.97
2023-04-19T11:52:35.481Z,3.20
2023-04-19T11:56:36.961Z,2.83
2023-04-19T12:00:38.583Z,2.65
2023-04-19T12:04:41.093Z,2.92
2023-04-19T12:08:48.222Z,2.78
2023-04-19T12:12:49.619Z,4.28
2023-04-19T12:17:10.800Z,2.28
2023-04-19T12:21:25.309Z,2.70
2023-04-19T12:25:31.276Z,2.33
2023-04-19T12:29:33.885Z,2.97
2023-04-19T12:33:35.404Z,3.20
2023-04-19T12:37:37.044Z,2.55
2023-04-19T12:41:38.646Z,2.85
2023-04-19T12:45:40.126Z,2.50
2023-04-19T12:49:41.624Z,2.15
2023-04-19T12:53:48.033Z,2.70
2023-04-19T12:57:49.587Z,2.72
2023-04-19T13:01:51.106Z,2.88
2023-04-19T13:05:52.522Z,2.58
2023-04-19T13:09:56.532Z,2.60
2023-04-19T13:13:58.398Z,3.05
2023-04-19T13:17:59.843Z,3.33
2023-04-19T13:22:01.347Z,2.75
2023-04-19T13:26:02.801Z,3.20
2023-04-19T13:30:04.680Z,3.28
2023-04-19T13:34:06.307Z,2.38
2023-04-19T13:38:07.778Z,2.92
2023-04-19T13:42:09.720Z,9.68
2023-04-19T13:46:11.473Z,2.67
2023-04-19T13:50:13.648Z,2.70
2023-04-19T13:54:17.558Z,3.70
2023-04-19T13:58:19.506Z,3.38
2023-04-19T14:02:21.255Z,3.13
2023-04-19T14:06:22.912Z,2.35
2023-04-19T14:10:24.433Z,2.78
2023-04-19T14:14:26.457Z,2.72
2023-04-19T14:18:27.943Z,2.40
2023-04-19T14:22:29.373Z,2.78
2023-04-19T14:26:30.835Z,2.58
2023-04-19T14:30:32.335Z,2.83
2023-04-19T14:34:33.864Z,2.47
2023-04-19T14:38:35.488Z,2.65
2023-04-19T14:42:36.928Z,2.58
2023-04-19T14:46:38.387Z,2.30
2023-04-19T14:50:39.785Z,2.70
2023-04-19T14:54:41.838Z,3.08
2023-04-19T14:58:43.296Z,3.22
2023-04-19T18:25:56.232Z,8.43
2023-04-19T18:29:57.679Z,6.70
2023-04-19T18:33:59.841Z,6.55
2023-04-19T18:38:01.623Z,7.55
2023-04-19T18:42:03.229Z,6.93
2023-04-19T18:46:04.768Z,6.63
2023-04-19T18:50:08.406Z,6.68
2023-04-19T18:54:09.884Z,7.57
2023-04-19T18:58:11.924Z,7.43
2023-04-19T19:02:13.431Z,6.88
2023-04-19T19:06:15.097Z,8.00
2023-04-19T19:10:20.904Z,8.75
2023-04-19T19:14:24.239Z,9.55
2023-04-19T19:18:27.682Z,7.97
2023-04-19T19:22:29.301Z,7.95
2023-04-19T19:26:31.363Z,7.28
2023-04-19T19:30:33.831Z,6.82
2023-04-19T19:34:47.531Z,8.07
2023-04-19T19:42:57.394Z,7.40
2023-04-19T19:46:58.970Z,7.65
2023-04-19T19:51:31.327Z,8.95
2023-04-19T19:55:23.604Z,8.45
2023-04-19T19:59:30.280Z,8.15
2023-04-19T20:03:37.359Z,8.23
2023-04-19T20:08:00.530Z,9.30
2023-04-19T20:12:02.570Z,8.55
2023-04-19T20:16:04.172Z,8.93
2023-04-19T20:20:08.820Z,9.52
2023-04-19T20:24:10.314Z,9.60
2023-04-19T20:28:12.488Z,9.55
2023-04-19T20:32:14.086Z,9.48
2023-04-19T20:36:16.331Z,8.68
2023-04-19T20:40:18.486Z,8.98
2023-04-19T20:44:22.971Z,9.85
2023-04-19T20:48:24.490Z,9.38
2023-04-19T20:52:26.100Z,7.60
2023-04-19T20:56:27.664Z,9.23
2023-04-19T21:00:29.140Z,8.77
2023-04-19T21:04:30.793Z,10.13
2023-04-19T21:08:32.285Z,9.55
2023-04-19T21:12:34.657Z,9.25
2023-04-19T21:16:36.208Z,8.30
2023-04-19T21:20:37.939Z,9.40
2023-04-19T21:24:42.186Z,9.00
2023-04-19T21:28:43.778Z,8.50
2023-04-19T21:32:45.388Z,9.35
2023-04-19T21:36:46.878Z,7.88
2023-04-19T21:40:49.413Z,8.48
2023-04-19T21:44:50.891Z,8.75
2023-04-19T21:48:54.377Z,8.13
2023-04-19T21:52:57.332Z,9.85
2023-04-19T21:56:59.366Z,9.85
2023-04-19T22:01:01.138Z,9.13
2023-04-19T22:05:04.869Z,10.38
2023-04-19T22:09:06.917Z,10.40
2023-04-19T22:13:08.660Z,9.40
2023-04-19T22:17:16.397Z,10.40
2023-04-19T22:21:17.822Z,11.05
2023-04-19T22:25:19.350Z,11.40
2023-04-19T22:29:20.992Z,10.18
2023-04-19T22:33:22.454Z,11.73
2023-04-19T22:37:24.172Z,12.73
2023-04-19T22:41:25.688Z,11.82
2023-04-19T22:45:27.190Z,11.70
2023-04-19T22:49:29.693Z,12.23
2023-04-19T22:53:31.168Z,12.43
2023-04-19T22:57:32.663Z,12.10
2023-04-19T23:01:34.906Z,10.95
2023-04-19T23:05:36.389Z,12.18
2023-04-19T23:09:39.186Z,11.38
2023-04-19T23:13:43.957Z,10.85
2023-04-19T23:17:45.403Z,12.05
2023-04-19T23:21:46.903Z,11.30
2023-04-19T23:25:48.687Z,12.55
2023-04-19T23:29:50.186Z,11.63
2023-04-19T23:33:51.618Z,11.80
2023-04-19T23:37:53.129Z,10.95
2023-04-19T23:41:54.613Z,11.48
2023-04-19T23:45:57.222Z,11.68
2023-04-19T23:49:58.686Z,12.38
2023-04-19T23:54:00.259Z,11.45
2023-04-19T23:58:01.656Z,11.40
